Archival Weather

Tokyo Intl

Tokyo, Japan (RJTT)

Report from: Saturday, April 1, 2023 2:30 AM JST
Current time: Sunday, July 14, 2024 8:47 PM JST

Current weather – Weather history – Daily summaries
Weather forecast

Temperature12.0°C (53.6°F)
Dew point9.0°C (48.2°F)
Winds 4 kts (2.1 m/s, 4.6 mph) West-Northwest (290°)
Clouds Sky clear
Altimeter29.97 in.Hg (1015 mB)
Relative humidity82 %
Density altitude-253 ft. (-77 m)
Remarks Ceiling and visibility OK
No significant changes expected in the next two hours
Flight conditions Visual Meteorological Conditions
Raw dataRJTT 311730Z 29004KT CAVOK 12/09 Q1015 NOSIG RMK A2999
An error has occurred. This application may no longer respond until reloaded. Reload 🗙